Time;durP1;ratioP1;P1;durP2;ratioP2;P2;SDS_P1;SDS_P2;PMS_P1;PMS_P2;Temp;Humidity;BMP_temperature;BMP_pressure;BME280_temperature;BME280_humidity;BME280_pressure;Samples;Min_cycle;Max_cycle;Signal;HPM_P1;HPM_P2
2021/12/02 00:02:03;;;;;;;0.50;0.40;;;;;;;5.86;68.72;98278.09;4998884;28;20049;-49
2021/12/02 00:04:31;;;;;;;1.90;0.35;;;;;;;5.83;68.60;98282.09;5000238;28;20037;-47
2021/12/02 00:06:56;;;;;;;4.18;1.17;;;;;;;5.81;68.94;98284.25;4998360;28;20174;-48
2021/12/02 00:09:22;;;;;;;2.35;0.40;;;;;;;5.79;68.51;98283.72;5001707;28;20480;-49
2021/12/02 00:11:47;;;;;;;1.90;0.43;;;;;;;5.79;68.35;98265.13;4995451;28;20042;-50
2021/12/02 00:14:14;;;;;;;3.53;0.63;;;;;;;5.72;68.09;98277.91;5003501;28;20030;-49
2021/12/02 00:17:03;;;;;;;3.95;0.40;;;;;;;5.71;67.94;98276.31;4995900;28;20026;-47
2021/12/02 00:22:12;;;;;;;3.78;0.30;;;;;;;5.70;66.92;98296.00;4999074;28;20032;-48
2021/12/02 00:24:39;;;;;;;3.88;0.65;;;;;;;5.69;66.87;98276.59;4998517;28;20045;-47
2021/12/02 00:27:08;;;;;;;2.38;0.30;;;;;;;5.67;66.63;98289.38;4998278;28;20026;-47
2021/12/02 00:29:35;;;;;;;5.97;0.38;;;;;;;5.66;66.35;98316.22;4998222;28;20119;-46
2021/12/02 00:32:06;;;;;;;6.63;0.52;;;;;;;5.59;65.20;98313.88;5002813;28;20040;-47
2021/12/02 00:34:32;;;;;;;0.80;0.22;;;;;;;5.61;66.23;98306.41;4995008;28;20029;-49
2021/12/02 00:37:00;;;;;;;4.82;0.63;;;;;;;5.58;66.04;98306.97;5002300;28;20030;-46
2021/12/02 00:39:27;;;;;;;3.97;0.40;;;;;;;5.57;65.61;98308.03;4996245;28;20467;-49
2021/12/02 00:41:54;;;;;;;4.00;0.55;;;;;;;5.54;65.54;98308.56;5001615;28;20405;-49
2021/12/02 00:44:19;;;;;;;2.13;0.40;;;;;;;5.57;66.04;98310.69;4998370;28;20091;-47
2021/12/02 00:46:45;;;;;;;2.58;0.40;;;;;;;5.56;65.66;98311.75;5015927;28;20428;-48
2021/12/02 00:49:14;;;;;;;2.92;0.40;;;;;;;5.52;64.81;98326.66;4994964;28;20038;-47
2021/12/02 00:51:44;;;;;;;0.50;0.30;;;;;;;5.51;64.76;98314.44;5000994;28;20034;-48
2021/12/02 00:54:11;;;;;;;1.42;0.30;;;;;;;5.50;64.87;98333.31;4993841;28;20022;-48
2021/12/02 00:56:39;;;;;;;2.78;0.40;;;;;;;5.46;64.51;98335.72;4993494;28;20556;-48
2021/12/02 00:59:07;;;;;;;1.88;0.50;;;;;;;5.41;63.86;98335.75;4996637;28;20117;-46
2021/12/02 01:01:35;;;;;;;3.22;0.50;;;;;;;5.37;64.21;98348.75;4993149;28;20026;-47
2021/12/02 01:04:11;;;;;;;0.63;0.40;;;;;;;5.35;64.10;98358.06;5001018;28;20561;-46
2021/12/02 01:06:37;;;;;;;3.80;0.50;;;;;;;5.35;63.73;98360.72;4996219;28;20207;-46
2021/12/02 01:09:05;;;;;;;0.65;0.25;;;;;;;5.35;64.20;98379.31;4995097;28;20140;-46
2021/12/02 01:11:31;;;;;;;0.93;0.22;;;;;;;5.33;63.71;98360.19;4997778;28;20054;-47
2021/12/02 01:13:57;;;;;;;1.00;0.80;;;;;;;5.35;63.98;98388.06;4995182;28;20049;-46
2021/12/02 01:16:23;;;;;;;1.92;0.30;;;;;;;5.34;63.74;98375.06;4997010;28;20480;-47
2021/12/02 01:18:49;;;;;;;1.02;0.35;;;;;;;5.30;63.28;98388.09;4996973;28;20034;-46
2021/12/02 01:21:19;;;;;;;1.77;0.38;;;;;;;5.28;63.43;98386.78;5000172;28;20022;-48
2021/12/02 01:23:49;;;;;;;0.68;0.38;;;;;;;5.26;63.24;98402.19;4998997;28;20534;-48
2021/12/02 01:26:17;;;;;;;0.65;0.20;;;;;;;5.25;63.79;98404.03;4998980;28;20257;-48
2021/12/02 01:28:44;;;;;;;0.73;0.30;;;;;;;5.25;63.49;98419.97;4997363;28;20030;-47
2021/12/02 01:31:11;;;;;;;2.83;0.45;;;;;;;5.23;63.87;98411.47;4999640;28;20030;-49
2021/12/02 01:33:38;;;;;;;3.80;0.60;;;;;;;5.18;63.94;98446.00;4992279;28;20068;-47
2021/12/02 01:36:04;;;;;;;1.02;0.60;;;;;;;5.16;64.62;98456.88;5002959;28;20236;-48
2021/12/02 01:38:32;;;;;;;3.17;0.52;;;;;;;5.12;65.17;98466.44;4994590;28;20124;-48
2021/12/02 01:40:59;;;;;;;3.08;0.88;;;;;;;5.01;66.36;98446.28;4999479;28;20105;-48
2021/12/02 01:43:47;;;;;;;1.23;0.50;;;;;;;4.83;68.16;98521.13;4993998;28;20041;-51
2021/12/02 01:46:17;;;;;;;1.75;0.47;;;;;;;4.79;68.85;98514.75;4988755;28;20038;-47
2021/12/02 01:48:48;;;;;;;1.15;0.50;;;;;;;4.70;69.85;98511.03;4995689;28;20116;-47
2021/12/02 01:51:16;;;;;;;4.18;0.60;;;;;;;4.66;69.45;98529.31;4995468;28;20184;-49
2021/12/02 01:53:42;;;;;;;4.05;0.70;;;;;;;4.64;69.97;98520.84;4996389;28;20049;-47
2021/12/02 01:56:16;;;;;;;3.38;0.60;;;;;;;4.54;69.29;98534.09;5000288;28;20030;-50
2021/12/02 01:58:50;;;;;;;1.10;0.50;;;;;;;4.48;68.96;98543.88;4998981;28;20030;-50
2021/12/02 02:01:16;;;;;;;1.40;0.55;;;;;;;4.46;68.77;98538.03;4998089;28;20053;-49
2021/12/02 02:03:43;;;;;;;1.80;0.60;;;;;;;4.46;69.12;98543.34;5004317;28;20104;-51
2021/12/02 02:06:09;;;;;;;1.77;0.50;;;;;;;4.47;68.89;98544.94;5007732;28;20112;-50
2021/12/02 02:08:41;;;;;;;1.02;0.30;;;;;;;4.44;69.09;98550.75;5000820;28;20561;-47
2021/12/02 02:11:08;;;;;;;0.50;0.40;;;;;;;4.40;69.11;98560.31;5009042;28;20018;-49
2021/12/02 02:13:34;;;;;;;2.05;0.55;;;;;;;4.36;69.35;98569.03;5002346;28;20507;-47
2021/12/02 02:16:00;;;;;;;2.65;0.75;;;;;;;4.29;69.74;98556.00;5006883;28;20088;-49
2021/12/02 02:18:25;;;;;;;0.95;0.50;;;;;;;4.27;70.49;98549.38;5003866;28;20027;-51
2021/12/02 02:23:27;;;;;;;3.85;0.63;;;;;;;4.20;70.71;98570.84;5000373;28;20128;-49
2021/12/02 02:25:53;;;;;;;5.25;0.65;;;;;;;4.15;70.71;98568.97;5006411;28;20025;-49
2021/12/02 02:28:18;;;;;;;1.48;0.75;;;;;;;4.08;70.37;98578.19;5003720;28;20034;-48
2021/12/02 02:30:44;;;;;;;2.10;0.65;;;;;;;4.06;70.22;98575.00;5019827;28;20173;-47
2021/12/02 02:33:11;;;;;;;0.88;0.70;;;;;;;4.05;69.86;98590.13;5002910;28;20021;-48
2021/12/02 02:35:38;;;;;;;1.77;0.55;;;;;;;4.04;70.13;98577.13;5001801;28;20030;-47
2021/12/02 02:38:04;;;;;;;0.73;0.50;;;;;;;4.02;69.92;98584.53;4999163;28;20045;-46
2021/12/02 02:40:30;;;;;;;2.10;0.40;;;;;;;4.02;69.63;98571.28;5002269;28;20499;-49
2021/12/02 02:42:59;;;;;;;2.72;0.70;;;;;;;3.94;69.91;98568.06;5001569;28;20069;-47
2021/12/02 02:45:25;;;;;;;0.93;0.70;;;;;;;3.80;70.25;98582.84;5003746;28;20553;-47
2021/12/02 02:47:51;;;;;;;5.82;0.70;;;;;;;3.75;70.93;98582.78;5003410;28;20033;-48
2021/12/02 02:50:17;;;;;;;1.48;0.50;;;;;;;3.69;71.20;98581.19;4997554;28;20026;-46
2021/12/02 02:52:45;;;;;;;0.85;0.60;;;;;;;3.66;71.05;98580.91;4998832;28;20046;-51
2021/12/02 02:55:15;;;;;;;3.10;0.50;;;;;;;3.59;71.53;98597.00;5000422;28;20253;-47
2021/12/02 02:57:48;;;;;;;3.97;0.85;;;;;;;3.59;71.69;98587.22;5001389;28;20025;-47
2021/12/02 03:00:18;;;;;;;0.77;0.63;;;;;;;3.55;72.01;98586.13;5005345;28;20116;-47
2021/12/02 03:03:54;;;;;;;2.08;0.95;;;;;;;3.54;72.17;98600.41;5001869;28;20031;-47
2021/12/02 03:06:01;;;;;;;5.07;0.75;;;;;;;3.52;72.21;98607.00;4989905;28;20515;-48
2021/12/02 03:08:36;;;;;;;2.25;0.70;;;;;;;3.50;72.00;98604.63;4994132;28;20077;-48
2021/12/02 03:11:02;;;;;;;2.30;0.63;;;;;;;3.51;71.70;98623.94;5002636;28;20491;-51
2021/12/02 03:13:46;;;;;;;3.72;0.70;;;;;;;3.50;71.94;98614.41;4999645;28;20387;-48
2021/12/02 03:18:55;;;;;;;0.85;0.65;;;;;;;3.51;71.43;98629.25;5000138;28;20119;-48
2021/12/02 03:21:22;;;;;;;3.85;0.93;;;;;;;3.51;71.20;98647.78;5002198;28;20029;-50
2021/12/02 03:23:54;;;;;;;4.07;0.80;;;;;;;3.47;70.44;98633.47;5004524;28;20425;-50
2021/12/02 03:26:21;;;;;;;0.75;0.57;;;;;;;3.47;70.42;98641.41;5003170;28;20040;-49
2021/12/02 03:28:51;;;;;;;3.30;1.00;;;;;;;3.41;68.78;98652.97;5002988;28;20030;-48
2021/12/02 03:31:17;;;;;;;1.45;0.50;;;;;;;3.32;68.10;98658.75;4996262;28;20041;-46
2021/12/02 03:33:43;;;;;;;1.77;0.70;;;;;;;3.32;68.42;98658.75;5004415;28;20092;-47
2021/12/02 03:36:10;;;;;;;0.50;0.35;;;;;;;3.33;68.40;98660.34;5000041;28;20034;-48
2021/12/02 03:38:37;;;;;;;2.33;0.50;;;;;;;3.34;68.36;98683.13;5001208;28;20029;-47
2021/12/02 03:41:02;;;;;;;2.78;0.45;;;;;;;3.36;67.62;98674.13;4999775;28;20025;-50
2021/12/02 03:43:40;;;;;;;0.63;0.40;;;;;;;3.37;66.89;98681.00;5000261;28;20034;-46
2021/12/02 03:46:07;;;;;;;2.90;0.63;;;;;;;3.38;66.55;98686.06;5000362;28;20425;-50
2021/12/02 03:48:35;;;;;;;2.65;0.60;;;;;;;3.33;66.48;98686.81;5000945;28;20018;-47
2021/12/02 03:51:01;;;;;;;2.38;0.60;;;;;;;3.33;66.02;98700.06;4997179;28;20034;-50
2021/12/02 03:53:26;;;;;;;1.50;0.50;;;;;;;3.32;65.97;98689.72;5000457;28;20186;-50
2021/12/02 03:55:52;;;;;;;2.70;0.70;;;;;;;3.29;65.48;98706.91;4999208;28;20030;-46
2021/12/02 03:58:17;;;;;;;3.40;0.57;;;;;;;3.27;65.33;98685.19;4997354;28;20026;-49
2021/12/02 04:00:43;;;;;;;3.47;0.75;;;;;;;3.25;65.83;98692.56;5003877;28;20050;-48
2021/12/02 04:03:08;;;;;;;3.33;0.50;;;;;;;3.27;65.96;98705.56;4995882;28;20041;-48
2021/12/02 04:05:34;;;;;;;4.15;0.47;;;;;;;3.22;65.47;98693.06;5000427;28;20500;-49
2021/12/02 04:08:00;;;;;;;2.47;0.40;;;;;;;3.21;65.20;98709.97;5002102;28;20029;-46
2021/12/02 04:10:26;;;;;;;5.80;0.80;;;;;;;3.20;65.33;98708.38;5005943;28;20033;-48
2021/12/02 04:15:24;;;;;;;4.28;0.70;;;;;;;3.19;65.23;98709.44;4996937;28;20092;-46
2021/12/02 04:17:51;;;;;;;1.33;0.93;;;;;;;3.22;64.89;98719.50;4996664;28;20049;-46
2021/12/02 04:20:19;;;;;;;4.00;1.00;;;;;;;3.22;65.24;98708.94;4999907;28;20096;-52
2021/12/02 04:22:45;;;;;;;2.38;0.70;;;;;;;3.25;64.74;98724.34;4996321;28;20133;-49
2021/12/02 04:25:12;;;;;;;4.32;0.50;;;;;;;3.17;63.59;98731.91;4997673;28;20114;-48
2021/12/02 04:27:40;;;;;;;5.63;0.60;;;;;;;3.17;63.61;98731.91;5001004;28;20076;-46
2021/12/02 04:30:09;;;;;;;1.17;0.50;;;;;;;3.18;64.17;98738.78;4998690;28;20025;-49
2021/12/02 04:32:35;;;;;;;2.35;0.93;;;;;;;3.21;64.38;98744.38;4999839;28;20092;-46
2021/12/02 04:35:01;;;;;;;3.38;0.50;;;;;;;3.20;64.60;98753.38;5000106;28;20061;-47
2021/12/02 04:37:26;;;;;;;1.75;0.50;;;;;;;3.24;64.73;98770.38;5023052;23;20185;-48
2021/12/02 04:39:52;;;;;;;1.85;0.60;;;;;;;3.24;64.88;98774.88;4997059;28;20517;-49
2021/12/02 04:42:17;;;;;;;0.65;0.50;;;;;;;3.28;65.12;98776.75;5000295;28;20029;-48
2021/12/02 04:44:43;;;;;;;4.18;0.60;;;;;;;3.25;64.74;98750.81;4997833;28;20042;-48
2021/12/02 04:47:09;;;;;;;2.45;0.35;;;;;;;3.23;64.24;98779.38;5003320;28;20539;-49
2021/12/02 04:49:35;;;;;;;2.42;0.47;;;;;;;3.19;63.83;98783.53;4996772;28;20026;-49
2021/12/02 04:52:01;;;;;;;1.40;0.43;;;;;;;3.16;64.32;98794.63;5000448;28;20017;-48
2021/12/02 04:54:26;;;;;;;0.70;0.55;;;;;;;3.16;64.40;98799.91;5000895;28;20022;-49
2021/12/02 04:56:52;;;;;;;2.58;0.88;;;;;;;3.12;63.91;98801.44;4998010;28;20479;-52
2021/12/02 04:59:17;;;;;;;0.98;0.57;;;;;;;3.12;64.29;98804.09;4995566;28;20033;-49
2021/12/02 05:01:43;;;;;;;1.90;0.95;;;;;;;3.11;64.38;98807.00;5000189;28;20033;-52
2021/12/02 05:04:09;;;;;;;0.40;0.40;;;;;;;3.10;64.37;98803.56;4992992;28;20503;-48
2021/12/02 05:06:35;;;;;;;0.70;0.40;;;;;;;3.08;63.88;98812.78;4999025;28;20032;-50
2021/12/02 05:09:01;;;;;;;0.70;0.40;;;;;;;3.08;64.15;98808.28;4999103;28;20057;-50
2021/12/02 05:11:26;;;;;;;2.17;0.45;;;;;;;3.08;64.24;98832.09;4995614;28;20074;-51
2021/12/02 05:13:52;;;;;;;4.28;0.70;;;;;;;3.09;64.05;98841.63;4996901;28;20053;-49
2021/12/02 05:16:17;;;;;;;2.65;0.60;;;;;;;3.09;64.40;98838.19;4998660;28;20490;-48
2021/12/02 05:18:43;;;;;;;4.22;0.82;;;;;;;3.10;64.51;98843.25;4996991;28;20038;-49
2021/12/02 05:21:08;;;;;;;3.10;0.60;;;;;;;3.07;63.99;98835.00;4997998;28;20483;-49
2021/12/02 05:23:34;;;;;;;1.90;0.30;;;;;;;3.06;64.08;98852.72;5001312;28;20030;-48
2021/12/02 05:25:59;;;;;;;0.43;0.38;;;;;;;3.04;64.00;98850.28;5002670;28;20079;-48
2021/12/02 05:28:25;;;;;;;2.13;0.60;;;;;;;2.97;63.90;98854.19;5000402;28;20365;-49
2021/12/02 05:30:51;;;;;;;3.80;0.60;;;;;;;2.93;63.69;98839.84;4999839;28;20403;-48
2021/12/02 05:33:16;;;;;;;6.78;0.82;;;;;;;2.96;63.83;98850.72;4998404;28;20034;-51
2021/12/02 05:35:43;;;;;;;2.70;0.98;;;;;;;3.01;63.92;98863.22;4995405;28;20497;-48
2021/12/02 05:38:08;;;;;;;2.60;0.77;;;;;;;3.01;63.86;98871.94;4994593;28;20037;-48
2021/12/02 05:40:34;;;;;;;5.82;1.02;;;;;;;2.96;63.67;98871.91;4999541;28;20021;-48
2021/12/02 05:42:59;;;;;;;3.05;0.40;;;;;;;2.86;62.91;98865.66;4999343;28;20065;-50
2021/12/02 05:45:25;;;;;;;1.33;0.50;;;;;;;2.84;62.86;98878.31;4999932;28;20089;-48
2021/12/02 05:47:51;;;;;;;0.75;0.40;;;;;;;2.84;63.33;98878.31;4994968;28;20092;-51
2021/12/02 05:50:16;;;;;;;4.75;0.50;;;;;;;2.88;63.56;98890.03;4998887;28;20034;-52
2021/12/02 05:52:42;;;;;;;1.90;0.50;;;;;;;2.79;63.76;98884.34;4996462;28;20036;-49
2021/12/02 05:55:08;;;;;;;1.75;0.50;;;;;;;2.88;63.91;98892.69;4997658;28;20319;-50
2021/12/02 05:57:33;;;;;;;1.85;0.60;;;;;;;2.98;64.37;98892.81;5001460;28;20025;-49
2021/12/02 06:00:00;;;;;;;1.30;1.00;;;;;;;2.88;63.43;98904.06;4999458;28;20028;-49
2021/12/02 06:02:26;;;;;;;2.20;0.40;;;;;;;2.61;63.03;98911.84;4998266;28;20033;-51
2021/12/02 06:04:53;;;;;;;0.30;0.30;;;;;;;2.66;63.47;98914.56;4996044;28;20066;-50
2021/12/02 06:07:20;;;;;;;3.55;0.55;;;;;;;2.54;63.22;98924.44;4995944;28;20096;-51
2021/12/02 06:09:46;;;;;;;2.65;0.55;;;;;;;2.61;63.34;98932.19;4999323;28;20448;-51
2021/12/02 06:12:13;;;;;;;3.95;0.75;;;;;;;2.56;63.62;98934.75;4999146;28;20037;-50
2021/12/02 06:14:39;;;;;;;0.17;0.17;;;;;;;2.60;63.67;98935.88;4998410;28;20034;-48
2021/12/02 06:17:04;;;;;;;1.75;0.50;;;;;;;2.61;63.85;98954.16;4993985;28;20033;-49
2021/12/02 06:19:30;;;;;;;0.50;0.30;;;;;;;2.70;64.08;98955.38;4994161;28;20026;-50
2021/12/02 06:21:56;;;;;;;1.38;0.55;;;;;;;2.74;63.89;98947.75;4996448;28;20388;-50
2021/12/02 06:24:29;;;;;;;2.65;0.45;;;;;;;2.71;64.09;98962.25;4996586;28;20022;-50
2021/12/02 06:26:55;;;;;;;3.25;0.40;;;;;;;2.71;64.25;98970.19;4995026;28;20392;-49
2021/12/02 06:29:21;;;;;;;1.40;0.50;;;;;;;2.75;64.14;98961.78;4998235;28;20371;-49
2021/12/02 06:31:46;;;;;;;0.40;0.32;;;;;;;2.47;63.84;98968.72;4998502;28;20034;-52
2021/12/02 06:34:12;;;;;;;2.35;0.43;;;;;;;2.46;63.72;98968.94;4996354;28;20331;-49
2021/12/02 06:36:37;;;;;;;0.35;0.30;;;;;;;2.53;64.23;98970.41;4998792;28;20443;-49
2021/12/02 06:39:05;;;;;;;0.80;0.45;;;;;;;2.60;64.20;98971.06;4996527;28;20026;-48
2021/12/02 06:41:30;;;;;;;2.38;0.38;;;;;;;2.54;63.99;98982.59;5000702;28;20511;-48
2021/12/02 06:43:56;;;;;;;0.43;0.30;;;;;;;2.58;65.01;98977.63;4995110;28;20034;-49
2021/12/02 06:46:22;;;;;;;1.42;0.50;;;;;;;2.61;64.85;98982.44;4996795;28;20022;-49
2021/12/02 06:48:49;;;;;;;1.27;0.40;;;;;;;2.54;64.55;98984.44;4998915;28;20037;-49
2021/12/02 06:51:15;;;;;;;0.60;0.50;;;;;;;2.41;64.71;98991.63;4999934;28;20025;-48
2021/12/02 06:53:41;;;;;;;4.03;0.45;;;;;;;2.35;64.95;98994.41;5005054;28;20028;-48
2021/12/02 06:56:07;;;;;;;0.52;0.30;;;;;;;2.18;64.70;98998.84;5005703;28;20154;-48
2021/12/02 06:58:33;;;;;;;1.20;0.63;;;;;;;2.37;64.85;99008.19;5010474;28;20112;-48
2021/12/02 07:00:58;;;;;;;1.55;0.60;;;;;;;2.23;64.89;99001.59;4999656;28;20083;-48
2021/12/02 07:03:24;;;;;;;1.70;0.50;;;;;;;2.31;65.29;99028.41;4995767;28;20375;-51
2021/12/02 07:05:50;;;;;;;5.78;1.45;;;;;;;2.35;64.86;99028.78;4993876;28;20040;-50
2021/12/02 07:08:16;;;;;;;0.70;0.45;;;;;;;2.41;65.18;99039.19;5002060;28;20029;-49
2021/12/02 07:10:41;;;;;;;0.57;0.40;;;;;;;2.39;64.87;99056.34;4998712;28;20026;-50
2021/12/02 07:13:07;;;;;;;1.23;0.60;;;;;;;2.29;64.92;99042.91;4998165;28;20037;-48
2021/12/02 07:15:39;;;;;;;4.00;0.40;;;;;;;2.29;64.98;99046.34;4992000;28;20336;-48
2021/12/02 07:18:12;;;;;;;0.82;0.40;;;;;;;2.30;65.08;99055.88;4993664;28;20380;-52
2021/12/02 07:20:38;;;;;;;2.38;0.40;;;;;;;2.37;65.17;99053.13;4996051;28;20085;-48
2021/12/02 07:23:05;;;;;;;0.95;0.57;;;;;;;2.40;65.18;99055.28;4995650;28;20045;-52
2021/12/02 07:25:32;;;;;;;2.28;0.60;;;;;;;2.25;65.50;99055.00;4992290;28;20045;-51
2021/12/02 07:27:58;;;;;;;2.33;0.88;;;;;;;2.29;65.53;99056.94;5009836;28;20034;-52
2021/12/02 07:30:23;;;;;;;2.97;0.63;;;;;;;2.28;65.33;99068.53;4998323;28;20042;-48
2021/12/02 07:32:55;;;;;;;1.17;0.50;;;;;;;2.26;65.57;99077.75;4996439;28;20116;-48
2021/12/02 07:35:22;;;;;;;1.63;0.80;;;;;;;2.23;65.94;99091.44;4990492;28;20032;-49
2021/12/02 07:37:51;;;;;;;2.53;0.40;;;;;;;2.25;65.84;99086.72;4998402;28;20029;-50
2021/12/02 07:40:18;;;;;;;2.83;0.50;;;;;;;2.19;65.53;99092.94;4994364;28;20033;-53
2021/12/02 07:42:45;;;;;;;1.02;0.60;;;;;;;2.26;65.83;99098.88;4995182;28;20038;-48
2021/12/02 07:45:11;;;;;;;0.40;0.40;;;;;;;2.29;65.54;99103.69;5001533;28;20026;-53
2021/12/02 07:47:40;;;;;;;0.55;0.45;;;;;;;2.32;65.60;99100.56;4993906;28;20400;-48
2021/12/02 07:50:08;;;;;;;1.10;0.30;;;;;;;2.26;65.77;99117.38;4995877;28;20030;-57
2021/12/02 07:52:35;;;;;;;0.65;0.57;;;;;;;2.27;66.11;99111.84;4997398;28;20034;-56
2021/12/02 07:55:06;;;;;;;1.50;0.35;;;;;;;2.28;65.61;99128.50;5002007;28;20031;-55
2021/12/02 07:57:33;;;;;;;1.02;0.60;;;;;;;2.36;65.40;99125.53;4998025;28;20533;-55
2021/12/02 07:59:59;;;;;;;0.90;0.63;;;;;;;2.23;65.49;99131.06;4998920;28;20025;-57
2021/12/02 08:02:32;;;;;;;1.00;0.63;;;;;;;2.32;65.85;99127.81;4995547;28;20030;-56
2021/12/02 08:04:58;;;;;;;1.05;0.55;;;;;;;2.37;65.69;99132.41;4995940;28;21055;-55
2021/12/02 08:07:24;;;;;;;3.97;0.65;;;;;;;2.40;65.81;99153.09;4990975;28;20122;-57
2021/12/02 08:09:49;;;;;;;0.80;0.55;;;;;;;2.49;65.98;99149.03;4994217;28;20065;-56
2021/12/02 08:12:15;;;;;;;0.80;0.60;;;;;;;2.56;65.93;99151.56;4991729;28;20476;-56
2021/12/02 08:14:40;;;;;;;2.00;0.68;;;;;;;2.48;65.63;99157.19;4989323;28;20404;-57
2021/12/02 08:17:06;;;;;;;0.95;0.50;;;;;;;2.53;65.93;99166.06;4991886;28;20081;-57
2021/12/02 08:19:31;;;;;;;1.20;0.52;;;;;;;2.58;65.79;99165.34;4991013;28;20157;-58
2021/12/02 08:21:57;;;;;;;2.13;0.90;;;;;;;2.41;65.82;99178.47;4999429;28;20032;-55
2021/12/02 08:24:24;;;;;;;2.70;0.40;;;;;;;2.42;65.73;99182.72;4998662;28;20752;-56
2021/12/02 08:26:50;;;;;;;0.43;0.35;;;;;;;2.47;65.96;99182.03;4995683;28;20100;-56
2021/12/02 08:29:16;;;;;;;0.90;0.55;;;;;;;2.40;65.91;99192.75;4999210;28;20488;-56
2021/12/02 08:31:41;;;;;;;2.97;0.40;;;;;;;2.47;65.90;99188.13;4991836;28;20034;-56
2021/12/02 08:34:07;;;;;;;0.63;0.35;;;;;;;2.40;65.76;99182.97;4989494;28;20083;-55
2021/12/02 08:36:42;;;;;;;1.25;0.45;;;;;;;2.34;65.60;99189.19;4991527;28;20091;-54
2021/12/02 08:39:11;;;;;;;0.88;0.20;;;;;;;2.36;65.82;99184.47;4991304;28;20033;-56
2021/12/02 08:41:42;;;;;;;1.10;0.82;;;;;;;2.35;65.84;99197.94;4988710;28;20574;-56
2021/12/02 08:44:08;;;;;;;0.60;0.30;;;;;;;2.44;65.92;99193.88;4990821;28;20064;-57
2021/12/02 08:46:34;;;;;;;2.15;0.40;;;;;;;2.35;65.86;99211.94;4991638;28;20372;-56
2021/12/02 08:48:59;;;;;;;0.30;0.30;;;;;;;2.45;65.70;99224.56;5004173;28;20447;-57
2021/12/02 08:51:25;;;;;;;1.85;0.40;;;;;;;2.55;65.92;99234.56;4989864;28;20037;-56
2021/12/02 08:53:50;;;;;;;3.95;0.60;;;;;;;2.47;65.88;99235.69;4992982;28;20030;-56
2021/12/02 08:56:16;;;;;;;0.65;0.40;;;;;;;2.60;65.99;99235.47;4989524;28;20448;-57
2021/12/02 08:58:41;;;;;;;1.58;0.50;;;;;;;2.75;65.59;99248.19;4991098;28;20034;-56
2021/12/02 09:01:06;;;;;;;1.00;0.47;;;;;;;2.73;65.70;99251.06;4986721;28;20080;-55
2021/12/02 09:03:33;;;;;;;1.17;0.40;;;;;;;2.69;65.87;99247.31;4990438;28;20065;-56
2021/12/02 09:06:00;;;;;;;0.30;0.22;;;;;;;2.62;65.66;99270.41;4991974;28;20042;-59
2021/12/02 09:08:26;;;;;;;0.73;0.40;;;;;;;2.55;65.66;99264.44;4989456;28;20030;-56
2021/12/02 09:10:51;;;;;;;0.40;0.22;;;;;;;2.42;65.96;99268.13;4990630;28;20057;-57
2021/12/02 09:13:17;;;;;;;1.27;0.50;;;;;;;2.60;66.41;99276.97;4989635;28;20113;-57
2021/12/02 09:15:42;;;;;;;2.05;0.50;;;;;;;2.81;66.09;99291.41;4986765;28;20396;-54
2021/12/02 09:18:09;;;;;;;1.10;0.50;;;;;;;2.68;66.03;99274.75;4990086;28;20609;-56
2021/12/02 09:20:35;;;;;;;3.38;0.40;;;;;;;2.81;65.97;99284.28;4988200;28;20022;-56
2021/12/02 09:23:01;;;;;;;0.68;0.40;;;;;;;2.67;65.82;99286.38;4992244;28;20025;-56
2021/12/02 09:25:27;;;;;;;2.13;0.50;;;;;;;2.65;65.99;99285.00;4990389;28;20092;-57
2021/12/02 09:27:53;;;;;;;2.60;0.60;;;;;;;2.59;66.41;99294.66;4990780;28;20034;-55
2021/12/02 09:30:19;;;;;;;1.67;0.50;;;;;;;2.62;66.08;99301.31;4985221;28;20029;-56
2021/12/02 09:32:45;;;;;;;1.10;0.50;;;;;;;2.73;65.94;99296.03;4988097;28;20037;-54
2021/12/02 09:35:12;;;;;;;1.10;0.40;;;;;;;2.85;66.18;99308.44;4994777;28;20540;-57
2021/12/02 09:37:38;;;;;;;2.05;0.40;;;;;;;2.89;65.86;99314.88;4994266;28;20034;-53
2021/12/02 09:40:06;;;;;;;0.90;0.65;;;;;;;2.84;65.85;99310.25;4993793;28;20034;-57
2021/12/02 09:42:32;;;;;;;0.50;0.38;;;;;;;2.93;65.83;99321.31;4991297;28;20057;-56
2021/12/02 09:45:01;;;;;;;3.10;0.60;;;;;;;2.82;65.91;99325.56;4988186;28;20144;-57
2021/12/02 09:47:32;;;;;;;1.50;0.55;;;;;;;2.68;66.19;99321.56;4987484;28;20030;-56
2021/12/02 09:50:06;;;;;;;2.20;0.40;;;;;;;2.78;66.74;99331.56;4994691;28;20190;-57
2021/12/02 09:52:36;;;;;;;0.82;0.40;;;;;;;2.85;66.33;99330.38;4993913;28;20030;-57
2021/12/02 09:55:06;;;;;;;2.10;0.50;;;;;;;2.94;66.29;99328.22;4994476;28;20309;-56
2021/12/02 09:57:45;;;;;;;1.20;0.38;;;;;;;2.86;66.27;99339.13;4989760;28;20488;-56
2021/12/02 10:00:17;;;;;;;2.20;0.55;;;;;;;2.85;66.50;99326.94;4991100;28;20034;-54
2021/12/02 10:02:52;;;;;;;2.45;0.70;;;;;;;2.63;66.55;99330.19;4991189;28;20026;-55
2021/12/02 10:05:49;;;;;;;1.35;0.95;;;;;;;2.65;67.03;99346.63;4987802;28;20106;-58
2021/12/02 10:08:29;;;;;;;3.30;0.40;;;;;;;2.82;67.17;99330.84;4989450;28;20030;-58
2021/12/02 10:11:29;;;;;;;0.93;0.63;;;;;;;2.73;66.84;99348.94;4989254;28;20022;-57
2021/12/02 10:13:59;;;;;;;1.33;0.50;;;;;;;2.78;67.25;99360.66;4989454;28;20045;-58
2021/12/02 10:16:28;;;;;;;1.65;0.60;;;;;;;2.87;67.03;99353.97;4987998;28;20072;-57
2021/12/02 10:19:04;;;;;;;2.60;0.60;;;;;;;2.75;67.04;99359.28;4987291;28;20027;-58
2021/12/02 10:24:08;;;;;;;8.40;0.73;;;;;;;2.73;67.20;99364.00;4998156;28;20238;-59
2021/12/02 10:26:49;;;;;;;0.60;0.40;;;;;;;2.56;67.56;99369.16;4993705;28;20431;-58
2021/12/02 10:29:19;;;;;;;6.10;0.73;;;;;;;2.60;68.22;99383.53;4999794;28;20423;-59
2021/12/02 10:32:04;;;;;;;2.50;0.60;;;;;;;2.58;68.34;99377.69;4998787;28;20065;-59
2021/12/02 10:34:30;;;;;;;2.08;0.50;;;;;;;2.59;67.95;99379.28;4993757;28;20022;-58
2021/12/02 10:37:09;;;;;;;1.77;0.60;;;;;;;2.66;68.11;99389.75;4996972;28;20045;-58
2021/12/02 10:39:35;;;;;;;1.05;0.40;;;;;;;2.56;68.63;99389.50;4996255;28;20065;-59
2021/12/02 10:42:07;;;;;;;3.13;0.50;;;;;;;2.62;68.71;99389.41;4993944;28;20049;-58
2021/12/02 10:44:35;;;;;;;2.45;0.50;;;;;;;2.65;68.24;99391.56;4996554;28;20026;-57
2021/12/02 10:47:15;;;;;;;2.22;0.60;;;;;;;2.62;68.75;99385.94;4997339;28;20480;-58
2021/12/02 10:49:49;;;;;;;1.98;0.82;;;;;;;2.60;68.51;99395.94;4994564;28;20495;-59
2021/12/02 10:52:21;;;;;;;2.95;0.82;;;;;;;2.65;68.13;99394.22;4998875;28;20038;-59
2021/12/02 10:54:51;;;;;;;2.67;0.82;;;;;;;2.65;68.47;99401.34;4996080;28;20034;-57
2021/12/02 10:57:23;;;;;;;0.57;0.38;;;;;;;2.41;72.32;99400.53;4995587;28;20026;-58
2021/12/02 10:59:56;;;;;;;3.75;0.70;;;;;;;2.52;69.69;99410.31;4993331;28;20460;-59
2021/12/02 11:02:25;;;;;;;1.52;0.45;;;;;;;2.61;69.46;99418.72;5001726;28;20037;-59
2021/12/02 11:04:59;;;;;;;1.40;0.50;;;;;;;2.66;69.20;99416.19;4994758;28;20053;-59
2021/12/02 11:07:44;;;;;;;6.32;0.63;;;;;;;2.47;69.09;99427.88;4992775;28;20030;-57
2021/12/02 11:10:14;;;;;;;0.73;0.38;;;;;;;2.50;68.67;99428.22;4998936;28;20507;-56
2021/12/02 11:12:42;;;;;;;1.63;0.50;;;;;;;2.61;68.81;99426.66;4996420;28;20037;-57
2021/12/02 11:15:16;;;;;;;0.80;0.50;;;;;;;2.62;69.25;99429.06;4988221;28;20044;-57
2021/12/02 11:17:44;;;;;;;1.65;0.68;;;;;;;2.62;68.38;99444.13;4995934;28;20025;-58
2021/12/02 11:20:31;;;;;;;0.47;0.40;;;;;;;2.75;68.53;99443.13;4996326;28;20038;-58
2021/12/02 11:23:03;;;;;;;1.10;0.65;;;;;;;2.81;68.54;99447.47;4988762;28;20044;-59
2021/12/02 11:25:31;;;;;;;2.42;0.80;;;;;;;2.77;68.21;99454.25;4999945;28;20097;-58
2021/12/02 11:27:57;;;;;;;1.55;0.85;;;;;;;2.65;68.14;99452.41;4997444;28;20397;-58
2021/12/02 11:30:26;;;;;;;1.05;0.60;;;;;;;2.83;68.09;99461.28;4992498;28;20350;-59
2021/12/02 11:32:57;;;;;;;4.03;0.73;;;;;;;3.00;67.99;99465.66;4999416;28;20133;-59
2021/12/02 11:35:25;;;;;;;1.55;0.50;;;;;;;2.76;67.83;99466.69;4996531;28;20029;-57
2021/12/02 11:37:59;;;;;;;1.80;0.50;;;;;;;3.02;67.67;99473.38;4998967;28;20037;-59
2021/12/02 11:40:28;;;;;;;3.63;0.90;;;;;;;2.92;67.72;99476.59;4993065;28;20404;-57
2021/12/02 11:42:55;;;;;;;1.13;0.60;;;;;;;2.92;67.89;99470.50;4998107;28;20516;-59
2021/12/02 11:45:23;;;;;;;1.77;0.70;;;;;;;2.90;68.08;99478.66;4997125;28;20035;-56
2021/12/02 11:47:51;;;;;;;1.80;0.55;;;;;;;3.05;67.65;99472.91;4993241;28;20028;-58
2021/12/02 11:50:19;;;;;;;1.55;0.50;;;;;;;3.11;67.75;99490.53;4998890;28;20056;-59
2021/12/02 11:52:45;;;;;;;3.72;0.85;;;;;;;3.26;66.91;99490.06;4997457;28;20644;-56
2021/12/02 11:55:18;;;;;;;1.55;1.13;;;;;;;3.19;66.97;99492.00;4993946;28;20034;-58
2021/12/02 11:57:45;;;;;;;1.65;0.60;;;;;;;3.37;66.50;99509.63;4991923;28;20034;-58
2021/12/02 12:00:14;;;;;;;0.45;0.43;;;;;;;3.53;66.04;99512.38;4993920;28;20508;-59